createdAt,value
2023-04-17T00:01:44.275Z,91.00
2023-04-17T00:04:13.289Z,91.00
2023-04-17T00:06:43.504Z,91.00
2023-04-17T00:09:13.998Z,91.10
2023-04-17T00:11:40.993Z,91.00
2023-04-17T00:14:07.878Z,91.00
2023-04-17T00:16:34.793Z,91.10
2023-04-17T00:19:01.728Z,91.00
2023-04-17T00:21:32.043Z,91.10
2023-04-17T00:23:59.062Z,91.10
2023-04-17T00:26:25.997Z,91.20
2023-04-17T00:28:52.944Z,91.20
2023-04-17T00:31:19.859Z,91.20
2023-04-17T00:33:46.928Z,91.20
2023-04-17T00:36:15.491Z,91.60
2023-04-17T00:38:42.714Z,91.20
2023-04-17T00:41:10.517Z,91.30
2023-04-17T00:43:38.191Z,91.20
2023-04-17T00:46:06.138Z,91.20
2023-04-17T00:48:34.335Z,91.60
2023-04-17T00:51:03.384Z,91.30
2023-04-17T00:53:32.072Z,91.30
2023-04-17T00:56:00.700Z,91.30
2023-04-17T00:58:27.889Z,91.30
2023-04-17T01:00:54.915Z,91.30
2023-04-17T01:03:23.219Z,91.30
2023-04-17T01:05:52.227Z,91.30
2023-04-17T01:08:19.587Z,91.30
2023-04-17T01:10:46.932Z,91.40
2023-04-17T01:13:13.928Z,91.40
2023-04-17T01:15:40.849Z,91.30
2023-04-17T01:18:07.851Z,91.40
2023-04-17T01:20:35.088Z,91.40
2023-04-17T01:23:02.015Z,91.40
2023-04-17T01:25:29.354Z,91.80
2023-04-17T01:27:57.112Z,91.40
2023-04-17T01:30:24.244Z,91.30
2023-04-17T01:32:53.387Z,91.30
2023-04-17T01:35:20.534Z,91.30
2023-04-17T01:37:47.602Z,91.20
2023-04-17T01:40:14.667Z,91.20
2023-04-17T01:42:41.744Z,91.20
2023-04-17T01:45:09.158Z,91.20
2023-04-17T01:47:36.062Z,91.20
2023-04-17T01:50:04.111Z,91.20
2023-04-17T01:52:31.056Z,91.10
2023-04-17T01:54:57.950Z,91.10
2023-04-17T01:57:25.093Z,91.10
2023-04-17T01:59:52.358Z,91.10
2023-04-17T02:02:19.380Z,91.10
2023-04-17T02:04:46.628Z,91.10
2023-04-17T02:07:13.604Z,91.10
2023-04-17T02:09:40.428Z,91.00
2023-04-17T02:12:07.463Z,91.00
2023-04-17T02:14:34.298Z,91.00
2023-04-17T02:17:01.645Z,91.00
2023-04-17T02:19:28.556Z,90.90
2023-04-17T02:21:55.450Z,90.80
2023-04-17T02:24:22.302Z,90.80
2023-04-17T02:26:49.675Z,90.80
2023-04-17T02:29:16.699Z,90.90
2023-04-17T02:31:43.610Z,90.80
2023-04-17T02:34:10.721Z,90.80
2023-04-17T02:36:37.562Z,90.80
2023-04-17T02:39:05.533Z,90.70
2023-04-17T02:41:32.538Z,90.80
2023-04-17T02:44:02.101Z,90.80
2023-04-17T02:46:29.173Z,90.70
2023-04-17T02:48:56.150Z,90.70
2023-04-17T02:51:22.981Z,90.70
2023-04-17T02:53:49.935Z,90.70
2023-04-17T02:56:16.817Z,90.70
2023-04-17T02:58:46.588Z,90.70
2023-04-17T03:01:13.557Z,90.80
2023-04-17T03:03:41.371Z,90.80
2023-04-17T03:06:09.949Z,90.80
2023-04-17T03:08:38.817Z,90.70
2023-04-17T03:11:06.579Z,90.70
2023-04-17T03:13:36.701Z,90.70
2023-04-17T03:16:04.822Z,90.70
2023-04-17T03:18:32.153Z,90.70
2023-04-17T03:20:59.163Z,90.70
2023-04-17T03:23:26.065Z,90.70
2023-04-17T03:25:53.213Z,90.70
2023-04-17T03:28:22.056Z,90.70
2023-04-17T03:30:49.487Z,90.70
2023-04-17T03:33:16.626Z,90.70
2023-04-17T03:35:44.320Z,90.80
2023-04-17T03:38:11.281Z,90.80
2023-04-17T03:40:38.426Z,90.80
2023-04-17T03:43:05.344Z,90.80
2023-04-17T03:45:32.335Z,90.80
2023-04-17T03:47:59.383Z,90.80
2023-04-17T03:50:26.470Z,90.80
2023-04-17T03:52:53.441Z,90.80
2023-04-17T03:55:20.340Z,90.80
2023-04-17T03:57:48.564Z,90.90
2023-04-17T04:00:16.364Z,90.80
2023-04-17T04:02:43.557Z,90.80
2023-04-17T04:05:10.735Z,90.80
2023-04-17T04:07:37.685Z,90.80
2023-04-17T04:10:04.966Z,90.80
2023-04-17T04:12:31.848Z,90.80
2023-04-17T04:14:58.788Z,90.80
2023-04-17T04:17:25.782Z,90.80
2023-04-17T04:19:52.740Z,90.80
2023-04-17T04:22:21.353Z,90.80
2023-04-17T04:24:48.356Z,90.80
2023-04-17T04:27:18.109Z,90.80
2023-04-17T04:29:48.935Z,90.80
2023-04-17T04:32:16.745Z,90.90
2023-04-17T04:34:44.726Z,90.90
2023-04-17T04:37:15.744Z,91.00
2023-04-17T04:39:43.441Z,91.00
2023-04-17T04:42:10.598Z,91.00
2023-04-17T04:44:37.711Z,91.00
2023-04-17T04:47:04.841Z,91.10
2023-04-17T04:49:31.867Z,91.10
2023-04-17T04:51:58.872Z,91.10
2023-04-17T04:54:25.926Z,91.10
2023-04-17T04:56:53.186Z,91.10
2023-04-17T04:59:20.005Z,91.20
2023-04-17T05:01:47.051Z,91.20
2023-04-17T05:04:14.157Z,91.20
2023-04-17T05:06:41.602Z,91.20
2023-04-17T05:09:08.662Z,91.20
2023-04-17T05:11:35.656Z,91.20
2023-04-17T05:14:02.978Z,91.20
2023-04-17T05:16:29.911Z,91.20
2023-04-17T05:18:56.956Z,91.30
2023-04-17T05:21:24.080Z,91.30
2023-04-17T05:23:51.092Z,91.30
2023-04-17T05:26:17.990Z,91.30
2023-04-17T05:28:45.497Z,91.30
2023-04-17T05:31:12.461Z,91.40
2023-04-17T05:33:39.385Z,91.30
2023-04-17T05:36:07.442Z,91.40
2023-04-17T05:38:34.368Z,91.40
2023-04-17T05:41:02.206Z,91.40
2023-04-17T05:43:29.146Z,91.40
2023-04-17T05:45:56.202Z,91.40
2023-04-17T05:48:23.211Z,91.40
2023-04-17T05:50:50.417Z,91.40
2023-04-17T05:53:17.440Z,91.40
2023-04-17T05:55:44.366Z,91.40
2023-04-17T05:58:23.215Z,91.40
2023-04-17T06:00:51.817Z,91.40
2023-04-17T06:03:19.481Z,91.50
2023-04-17T06:05:47.268Z,91.50
2023-04-17T06:08:14.393Z,91.50
2023-04-17T06:10:41.381Z,91.60
2023-04-17T06:13:08.464Z,91.60
2023-04-17T06:15:35.506Z,91.60
2023-04-17T06:18:02.463Z,91.60
2023-04-17T06:20:29.561Z,91.60
2023-04-17T06:22:57.254Z,91.60
2023-04-17T06:25:24.291Z,91.70
2023-04-17T06:27:51.350Z,91.70
2023-04-17T06:30:18.329Z,91.70
2023-04-17T06:32:45.251Z,91.70
2023-04-17T06:35:12.345Z,91.70
2023-04-17T06:37:39.446Z,91.60
2023-04-17T06:40:08.409Z,91.60
2023-04-17T06:42:35.771Z,91.60
2023-04-17T06:45:02.765Z,91.60
2023-04-17T06:47:29.834Z,91.70
2023-04-17T06:49:59.919Z,91.60
2023-04-17T06:52:26.954Z,91.60
2023-04-17T06:54:56.871Z,91.50
2023-04-17T06:57:23.718Z,91.50
2023-04-17T06:59:50.516Z,91.50
2023-04-17T07:02:17.813Z,91.50
2023-04-17T07:04:44.884Z,91.50
2023-04-17T07:07:12.069Z,91.50
2023-04-17T07:09:39.116Z,91.50
2023-04-17T07:12:06.099Z,91.50
2023-04-17T07:14:33.568Z,91.50
2023-04-17T07:17:00.701Z,91.50
2023-04-17T07:19:27.574Z,91.60
2023-04-17T07:21:54.426Z,91.70
2023-04-17T07:24:21.263Z,91.70
2023-04-17T07:26:49.613Z,91.70
2023-04-17T07:29:16.628Z,91.70
2023-04-17T07:31:43.786Z,91.80
2023-04-17T07:34:10.613Z,91.90
2023-04-17T07:36:37.515Z,91.90
2023-04-17T07:39:06.274Z,91.80
2023-04-17T07:41:33.134Z,91.80
2023-04-17T07:44:03.252Z,91.90
2023-04-17T07:46:30.243Z,91.90
2023-04-17T07:48:57.151Z,92.00
2023-04-17T07:51:24.106Z,92.10
2023-04-17T07:53:50.919Z,92.00
2023-04-17T07:56:17.756Z,92.10
2023-04-17T07:58:47.251Z,92.10
2023-04-17T08:01:14.092Z,92.00
2023-04-17T08:03:41.969Z,91.90
2023-04-17T08:06:09.114Z,91.90
2023-04-17T08:08:36.417Z,91.90
2023-04-17T08:11:03.892Z,91.90
2023-04-17T08:13:32.267Z,91.80
2023-04-17T08:15:59.664Z,91.70
2023-04-17T08:18:26.509Z,91.60
2023-04-17T08:20:53.816Z,91.50
2023-04-17T08:23:20.746Z,91.50
2023-04-17T08:25:47.651Z,91.50
2023-04-17T08:28:14.533Z,91.40
2023-04-17T08:30:41.443Z,91.30
2023-04-17T08:33:08.277Z,91.30
2023-04-17T08:35:35.105Z,91.30
2023-04-17T08:38:02.044Z,91.30
2023-04-17T08:40:29.009Z,91.10
2023-04-17T08:42:55.877Z,91.00
2023-04-17T08:45:24.726Z,90.90
2023-04-17T08:47:51.827Z,90.80
2023-04-17T08:50:20.669Z,90.60
2023-04-17T08:52:49.880Z,90.60
2023-04-17T08:55:19.487Z,90.60
2023-04-17T08:58:04.924Z,90.50
2023-04-17T09:00:42.681Z,90.40
2023-04-17T09:03:13.627Z,90.30
2023-04-17T09:05:43.546Z,90.30
2023-04-17T09:08:20.663Z,90.30
2023-04-17T09:10:49.571Z,90.30
2023-04-17T09:13:18.736Z,90.20
2023-04-17T09:15:47.054Z,90.20
2023-04-17T09:18:27.981Z,90.10
2023-04-17T09:20:54.968Z,90.00
2023-04-17T09:23:23.484Z,89.60
2023-04-17T09:26:09.196Z,89.20
2023-04-17T09:28:36.937Z,89.00
2023-04-17T09:31:26.237Z,89.10
2023-04-17T09:34:20.755Z,89.00
2023-04-17T09:36:48.234Z,88.70
2023-04-17T09:39:20.479Z,88.80
2023-04-17T09:41:47.609Z,88.80
2023-04-17T09:44:26.891Z,88.30
2023-04-17T09:46:54.392Z,87.70
2023-04-17T09:49:42.577Z,87.70
2023-04-17T09:52:09.480Z,87.40
2023-04-17T09:54:39.176Z,87.50
2023-04-17T09:57:10.747Z,87.40
2023-04-17T09:59:41.684Z,87.00
2023-04-17T10:02:12.563Z,86.30
2023-04-17T10:04:43.917Z,85.90
2023-04-17T10:07:12.723Z,85.20
2023-04-17T10:09:45.562Z,84.60
2023-04-17T10:12:15.375Z,83.80
2023-04-17T10:14:46.577Z,83.00
2023-04-17T10:17:34.266Z,82.50
2023-04-17T10:20:23.116Z,81.80
2023-04-17T10:22:54.805Z,81.70
2023-04-17T10:25:23.116Z,81.80
2023-04-17T10:27:58.573Z,81.40
2023-04-17T10:30:55.817Z,81.00
2023-04-17T10:33:27.270Z,81.50
2023-04-17T10:35:54.428Z,80.80
2023-04-17T10:38:43.604Z,80.30
2023-04-17T10:41:11.318Z,79.40
2023-04-17T10:43:42.014Z,79.30
2023-04-17T10:46:13.203Z,79.10
2023-04-17T10:48:50.646Z,79.00
2023-04-17T10:51:23.655Z,78.90
2023-04-17T10:54:01.691Z,78.60
2023-04-17T10:56:48.561Z,78.40
2023-04-17T10:59:17.397Z,77.80
2023-04-17T11:01:50.875Z,77.60
2023-04-17T11:04:24.606Z,77.30
2023-04-17T11:06:55.712Z,77.30
2023-04-17T11:09:25.544Z,76.90
2023-04-17T11:11:52.356Z,76.70
2023-04-17T11:14:21.246Z,76.80
2023-04-17T11:16:49.978Z,76.70
2023-04-17T11:19:22.988Z,76.70
2023-04-17T11:21:52.328Z,76.60
2023-04-17T11:24:27.351Z,76.40
2023-04-17T11:26:55.086Z,75.50
2023-04-17T11:29:23.395Z,75.40
2023-04-17T11:31:54.354Z,75.40
2023-04-17T11:34:21.702Z,75.30
2023-04-17T11:36:53.117Z,75.40
2023-04-17T11:39:21.796Z,75.10
2023-04-17T11:41:49.553Z,75.00
2023-04-17T11:44:18.687Z,74.40
2023-04-17T11:46:56.462Z,73.90
2023-04-17T11:49:31.263Z,73.20
2023-04-17T11:52:01.844Z,72.40
2023-04-17T11:54:38.546Z,72.90
2023-04-17T11:57:11.320Z,72.90
2023-04-17T11:59:39.609Z,71.90
2023-04-17T12:02:07.942Z,71.50
2023-04-17T12:04:36.526Z,70.80
2023-04-17T12:07:08.159Z,70.70
2023-04-17T12:09:35.871Z,70.50
2023-04-17T12:12:07.482Z,70.10
2023-04-17T12:14:34.651Z,69.80
2023-04-17T12:17:01.636Z,70.00
2023-04-17T12:19:29.960Z,69.70
2023-04-17T12:21:57.414Z,69.60
2023-04-17T12:24:25.182Z,70.10
2023-04-17T12:26:53.347Z,69.90
2023-04-17T12:29:29.558Z,69.10
2023-04-17T12:32:03.834Z,68.60
2023-04-17T12:34:30.856Z,68.10
2023-04-17T12:36:57.756Z,68.10
2023-04-17T12:39:24.706Z,67.70
2023-04-17T12:41:51.700Z,67.50
2023-04-17T12:44:18.519Z,67.60
2023-04-17T12:46:46.865Z,67.70
2023-04-17T12:49:13.975Z,68.00
2023-04-17T12:51:41.235Z,68.00
2023-04-17T12:54:08.336Z,67.90
2023-04-17T12:56:35.323Z,67.60
2023-04-17T12:59:03.017Z,67.30
2023-04-17T13:01:30.557Z,67.40
2023-04-17T13:03:57.681Z,67.40
2023-04-17T13:06:25.261Z,67.60
2023-04-17T13:08:52.236Z,67.30
2023-04-17T13:11:19.178Z,67.00
2023-04-17T13:13:46.092Z,66.60
2023-04-17T13:16:12.997Z,66.80
2023-04-17T13:18:39.842Z,66.60
2023-04-17T13:21:07.716Z,66.70
2023-04-17T13:23:34.643Z,66.70
2023-04-17T13:26:01.557Z,67.00
2023-04-17T13:28:28.331Z,66.00
2023-04-17T13:30:55.179Z,65.60
2023-04-17T13:33:22.028Z,65.20
2023-04-17T13:35:50.946Z,65.10
2023-04-17T13:38:17.839Z,64.90
2023-04-17T13:40:44.693Z,64.70
2023-04-17T13:43:11.677Z,64.60
2023-04-17T13:45:38.557Z,65.00
2023-04-17T13:48:05.570Z,65.90
2023-04-17T13:50:32.479Z,66.00
2023-04-17T13:52:59.348Z,65.30
2023-04-17T13:55:26.300Z,65.40
2023-04-17T13:57:54.218Z,63.70
2023-04-17T14:00:22.196Z,62.90
2023-04-17T14:02:49.231Z,62.70
2023-04-17T14:05:16.423Z,62.70
2023-04-17T14:07:44.164Z,62.20
2023-04-17T14:10:11.204Z,62.50
2023-04-17T14:12:38.057Z,62.60
2023-04-17T14:15:07.350Z,63.20
2023-04-17T14:17:37.993Z,63.10
2023-04-17T14:20:05.879Z,62.50
2023-04-17T14:22:32.738Z,60.30
2023-04-17T14:24:59.608Z,58.90
2023-04-17T14:27:26.525Z,58.40
2023-04-17T14:29:53.363Z,57.90
2023-04-17T14:32:20.194Z,57.70
2023-04-17T14:34:47.053Z,56.40
2023-04-17T14:37:14.576Z,55.70
2023-04-17T14:39:41.419Z,54.80
2023-04-17T14:42:08.259Z,54.70
2023-04-17T14:44:35.035Z,54.70
2023-04-17T14:47:02.486Z,54.30
2023-04-17T14:49:30.221Z,54.40
2023-04-17T14:51:57.110Z,54.40
2023-04-17T14:54:23.927Z,54.70
2023-04-17T14:56:50.826Z,54.50
2023-04-17T14:59:17.896Z,55.70
2023-04-17T15:01:44.815Z,56.80
2023-04-17T15:04:12.066Z,57.50
2023-04-17T15:06:39.349Z,58.40
2023-04-17T15:09:06.825Z,58.80
2023-04-17T15:11:33.674Z,59.60
2023-04-17T15:14:00.589Z,59.50
2023-04-17T15:16:27.537Z,58.90
2023-04-17T15:18:54.540Z,59.00
2023-04-17T15:21:21.410Z,59.10
2023-04-17T15:23:48.154Z,60.10
2023-04-17T15:26:15.224Z,59.60
2023-04-17T15:28:42.071Z,60.30
2023-04-17T15:31:08.967Z,61.00
2023-04-17T15:33:38.039Z,61.50
2023-04-17T15:36:05.009Z,61.90
2023-04-17T15:38:31.880Z,62.10
2023-04-17T15:40:59.003Z,62.70
2023-04-17T15:43:26.942Z,63.00
2023-04-17T15:45:55.316Z,63.30
2023-04-17T15:48:22.164Z,64.50
2023-04-17T15:50:48.965Z,63.80
2023-04-17T15:53:16.001Z,64.10
2023-04-17T15:55:42.771Z,64.80
2023-04-17T15:58:09.712Z,65.50
2023-04-17T16:00:36.633Z,66.00
2023-04-17T16:03:03.772Z,66.00
2023-04-17T16:05:31.944Z,66.10
2023-04-17T16:07:58.850Z,65.80
2023-04-17T16:10:25.818Z,65.40
2023-04-17T16:12:52.636Z,65.30
2023-04-17T16:15:19.740Z,65.20
2023-04-17T16:17:48.583Z,65.10
2023-04-17T16:20:15.868Z,64.50
2023-04-17T16:22:42.835Z,64.40
2023-04-17T16:25:12.150Z,63.90
2023-04-17T16:27:40.255Z,63.30
2023-04-17T16:30:08.617Z,63.70
2023-04-17T16:32:35.731Z,63.30
2023-04-17T16:35:02.613Z,63.10
2023-04-17T16:37:29.449Z,63.10
2023-04-17T16:39:56.376Z,62.30
2023-04-17T16:42:24.238Z,62.00
2023-04-17T16:44:51.104Z,61.60
2023-04-17T16:47:18.060Z,61.70
2023-04-17T16:49:44.928Z,61.50
2023-04-17T16:52:11.728Z,60.90
2023-04-17T16:54:38.577Z,60.60
2023-04-17T16:57:06.145Z,60.40
2023-04-17T16:59:33.194Z,60.00
2023-04-17T17:02:02.544Z,60.90
2023-04-17T17:04:30.184Z,59.40
2023-04-17T17:06:57.809Z,59.30
2023-04-17T17:09:25.564Z,59.20
2023-04-17T17:11:52.462Z,59.50
2023-04-17T17:14:19.369Z,59.80
2023-04-17T17:16:46.190Z,59.90
2023-04-17T17:19:14.702Z,60.40
2023-04-17T17:21:41.651Z,60.60
2023-04-17T17:24:08.620Z,60.80
2023-04-17T17:26:36.976Z,61.20
2023-04-17T17:29:05.064Z,61.70
2023-04-17T17:31:33.959Z,62.00
2023-04-17T17:34:16.296Z,62.30
2023-04-17T17:36:49.486Z,62.60
2023-04-17T17:39:16.631Z,63.10
2023-04-17T17:41:45.214Z,63.40
2023-04-17T17:44:14.521Z,63.60
2023-04-17T17:46:41.652Z,64.10
2023-04-17T17:49:08.703Z,64.20
2023-04-17T17:51:35.578Z,64.30
2023-04-17T17:54:02.441Z,64.50
2023-04-17T17:56:29.387Z,64.70
2023-04-17T17:58:56.262Z,64.80
2023-04-17T18:01:25.907Z,65.00
2023-04-17T18:03:53.393Z,65.20
2023-04-17T18:06:20.960Z,65.30
2023-04-17T18:08:47.945Z,65.50
2023-04-17T18:11:14.809Z,65.90
2023-04-17T18:13:41.663Z,66.00
2023-04-17T18:16:08.575Z,66.20
2023-04-17T18:18:35.478Z,66.40
2023-04-17T18:21:09.317Z,66.50
2023-04-17T18:23:36.246Z,66.80
2023-04-17T18:26:04.042Z,67.00
2023-04-17T18:28:30.994Z,67.20
2023-04-17T18:30:57.999Z,67.30
2023-04-17T18:33:25.067Z,67.50
2023-04-17T18:35:52.076Z,67.90
2023-04-17T18:38:19.071Z,68.00
2023-04-17T18:40:46.082Z,68.30
2023-04-17T18:43:12.962Z,68.30
2023-04-17T18:45:39.768Z,68.60
2023-04-17T18:48:06.767Z,68.90
2023-04-17T18:50:34.324Z,69.20
2023-04-17T18:53:01.876Z,69.30
2023-04-17T18:55:28.808Z,69.50
2023-04-17T18:57:55.655Z,69.70
2023-04-17T19:00:22.457Z,69.90
2023-04-17T19:02:49.479Z,70.10
2023-04-17T19:05:16.559Z,70.20
2023-04-17T19:07:43.456Z,70.50
2023-04-17T19:10:10.789Z,70.80
2023-04-17T19:12:37.695Z,71.00
2023-04-17T19:15:05.703Z,71.20
2023-04-17T19:17:32.709Z,71.50
2023-04-17T19:19:59.500Z,71.80
2023-04-17T19:22:26.301Z,72.10
2023-04-17T19:24:53.183Z,72.40
2023-04-17T19:27:20.377Z,72.70
2023-04-17T19:29:47.527Z,72.90
2023-04-17T19:32:16.670Z,73.20
2023-04-17T19:34:44.362Z,73.50
2023-04-17T19:37:11.356Z,73.90
2023-04-17T19:39:38.197Z,74.20
2023-04-17T19:42:05.612Z,74.50
2023-04-17T19:44:32.495Z,74.70
2023-04-17T19:46:59.511Z,75.00
2023-04-17T19:49:26.548Z,75.10
2023-04-17T19:51:53.380Z,75.30
2023-04-17T19:54:20.238Z,75.40
2023-04-17T19:56:47.110Z,75.50
2023-04-17T19:59:14.356Z,75.70
2023-04-17T20:01:43.552Z,75.80
2023-04-17T20:04:11.125Z,75.90
2023-04-17T20:06:39.492Z,76.10
2023-04-17T20:09:06.787Z,76.30
2023-04-17T20:11:34.347Z,76.40
2023-04-17T20:14:01.233Z,76.70
2023-04-17T20:16:28.240Z,76.80
2023-04-17T20:18:56.799Z,76.90
2023-04-17T20:21:24.235Z,77.10
2023-04-17T20:23:51.198Z,77.20
2023-04-17T20:26:18.272Z,77.30
2023-04-17T20:28:45.228Z,77.40
2023-04-17T20:31:12.238Z,77.50
2023-04-17T20:33:39.327Z,77.60
2023-04-17T20:36:06.431Z,77.70
2023-04-17T20:38:33.423Z,77.70
2023-04-17T20:41:00.249Z,77.80
2023-04-17T20:43:27.072Z,77.90
2023-04-17T20:45:53.887Z,78.00
2023-04-17T20:48:20.777Z,78.10
2023-04-17T20:50:47.689Z,78.20
2023-04-17T20:53:14.529Z,78.10
2023-04-17T20:55:41.381Z,78.20
2023-04-17T20:58:08.285Z,78.10
2023-04-17T21:00:35.164Z,78.20
2023-04-17T21:03:02.306Z,78.20
2023-04-17T21:05:29.326Z,78.20
2023-04-17T21:07:57.750Z,78.10
2023-04-17T21:10:24.728Z,78.10
2023-04-17T21:12:51.774Z,78.10
2023-04-17T21:15:18.779Z,78.10
2023-04-17T21:17:47.779Z,78.00
2023-04-17T21:20:14.915Z,78.00
2023-04-17T21:22:41.830Z,78.00
2023-04-17T21:25:09.030Z,77.90
2023-04-17T21:27:36.200Z,77.80
2023-04-17T21:30:03.960Z,77.80
2023-04-17T21:32:30.999Z,77.70
2023-04-17T21:34:57.988Z,77.70
2023-04-17T21:37:24.868Z,77.70
2023-04-17T21:39:51.760Z,77.70
2023-04-17T21:42:18.927Z,77.60
2023-04-17T21:44:45.775Z,77.60
2023-04-17T21:47:14.527Z,77.70
2023-04-17T21:49:41.425Z,77.60
2023-04-17T21:52:08.288Z,77.60
2023-04-17T21:54:35.370Z,77.60
2023-04-17T21:57:03.399Z,77.60
2023-04-17T21:59:30.855Z,77.70
2023-04-17T22:01:57.733Z,77.70
2023-04-17T22:04:25.825Z,77.80
2023-04-17T22:06:54.231Z,77.80
2023-04-17T22:09:21.696Z,77.90
2023-04-17T22:11:49.018Z,77.90
2023-04-17T22:14:16.658Z,78.00
2023-04-17T22:16:43.880Z,78.00
2023-04-17T22:19:10.827Z,78.00
2023-04-17T22:21:37.852Z,78.10
2023-04-17T22:24:04.850Z,78.30
2023-04-17T22:26:31.928Z,78.30
2023-04-17T22:28:58.789Z,78.40
2023-04-17T22:31:25.711Z,78.50
2023-04-17T22:33:52.594Z,78.60
2023-04-17T22:36:19.450Z,78.80
2023-04-17T22:38:46.308Z,78.90
2023-04-17T22:41:13.224Z,78.90
2023-04-17T22:43:40.046Z,79.00
2023-04-17T22:46:06.961Z,79.10
2023-04-17T22:48:34.950Z,79.10
2023-04-17T22:51:02.394Z,79.20
2023-04-17T22:53:29.636Z,79.30
2023-04-17T22:56:04.027Z,79.40
2023-04-17T22:58:32.218Z,79.50
2023-04-17T23:01:00.015Z,79.70
2023-04-17T23:03:27.018Z,79.80
2023-04-17T23:05:54.659Z,79.90
2023-04-17T23:08:21.770Z,80.00
2023-04-17T23:10:57.639Z,80.10
2023-04-17T23:13:24.515Z,80.20
2023-04-17T23:15:51.973Z,80.30
2023-04-17T23:18:18.898Z,80.30
2023-04-17T23:20:46.177Z,80.50
2023-04-17T23:23:13.129Z,80.50
2023-04-17T23:25:39.984Z,80.50
2023-04-17T23:28:06.889Z,80.60
2023-04-17T23:30:33.765Z,80.50
2023-04-17T23:33:00.944Z,80.50
2023-04-17T23:35:27.781Z,80.50
2023-04-17T23:37:54.686Z,80.50
2023-04-17T23:40:21.487Z,80.40
2023-04-17T23:42:48.355Z,80.40
2023-04-17T23:45:15.252Z,80.40
2023-04-17T23:47:42.184Z,80.30
2023-04-17T23:50:09.859Z,80.30
2023-04-17T23:52:36.798Z,80.30
2023-04-17T23:55:03.895Z,80.20
2023-04-17T23:57:30.722Z,80.20
2023-04-17T23:59:57.546Z,80.20
